createdAt,value
2023-04-13T00:02:06.714Z,0.38
2023-04-13T00:04:37.133Z,0.55
2023-04-13T00:07:05.207Z,0.40
2023-04-13T00:09:34.927Z,0.30
2023-04-13T00:12:05.154Z,0.50
2023-04-13T00:14:34.324Z,0.30
2023-04-13T00:17:03.197Z,0.30
2023-04-13T00:19:31.212Z,0.43
2023-04-13T00:22:00.737Z,0.40
2023-04-13T00:24:28.450Z,0.50
2023-04-13T00:26:57.127Z,0.50
2023-04-13T00:29:25.146Z,0.60
2023-04-13T00:31:53.028Z,0.30
2023-04-13T00:34:20.924Z,0.40
2023-04-13T00:36:49.229Z,0.40
2023-04-13T00:39:23.299Z,0.30
2023-04-13T00:41:51.321Z,0.32
2023-04-13T00:44:19.994Z,0.40
2023-04-13T00:46:48.635Z,0.30
2023-04-13T00:49:16.978Z,0.40
2023-04-13T00:51:45.902Z,0.47
2023-04-13T00:54:15.624Z,0.30
2023-04-13T00:56:45.052Z,0.40
2023-04-13T00:59:14.222Z,0.30
2023-04-13T01:01:50.583Z,0.30
2023-04-13T01:04:19.965Z,0.30
2023-04-13T01:06:51.377Z,0.20
2023-04-13T01:09:23.139Z,0.40
2023-04-13T01:11:57.922Z,0.30
2023-04-13T01:14:29.472Z,0.20
2023-04-13T01:17:01.289Z,0.10
2023-04-13T01:19:36.811Z,0.10
2023-04-13T01:22:04.953Z,0.40
2023-04-13T01:24:40.580Z,0.13
2023-04-13T01:27:14.714Z,0.20
2023-04-13T01:29:46.707Z,0.20
2023-04-13T01:32:15.041Z,0.30
2023-04-13T01:34:42.744Z,0.20
2023-04-13T01:37:11.221Z,0.25
2023-04-13T01:39:40.012Z,0.30
2023-04-13T01:42:07.764Z,0.30
2023-04-13T01:44:36.610Z,0.35
2023-04-13T01:47:16.070Z,0.20
2023-04-13T01:49:48.106Z,0.30
2023-04-13T01:52:17.237Z,0.20
2023-04-13T01:54:46.598Z,0.30
2023-04-13T01:57:14.854Z,0.30
2023-04-13T01:59:42.506Z,0.30
2023-04-13T02:02:16.955Z,0.20
2023-04-13T02:04:45.046Z,0.40
2023-04-13T02:07:12.875Z,0.30
2023-04-13T02:09:40.580Z,0.20
2023-04-13T02:12:09.077Z,0.30
2023-04-13T02:14:37.331Z,0.63
2023-04-13T02:17:05.077Z,0.40
2023-04-13T02:19:34.713Z,0.30
2023-04-13T02:22:02.385Z,0.30
2023-04-13T02:24:30.331Z,0.40
2023-04-13T02:26:58.047Z,0.30
2023-04-13T02:29:28.548Z,0.20
2023-04-13T02:31:56.257Z,0.40
2023-04-13T02:34:24.020Z,0.28
2023-04-13T02:36:53.710Z,0.30
2023-04-13T02:39:21.436Z,0.20
2023-04-13T02:41:49.166Z,0.47
2023-04-13T02:44:16.872Z,0.22
2023-04-13T02:46:44.701Z,0.40
2023-04-13T02:49:12.394Z,0.55
2023-04-13T02:51:40.194Z,0.30
2023-04-13T02:54:11.152Z,0.50
2023-04-13T02:56:38.791Z,0.52
2023-04-13T02:59:06.537Z,0.30
2023-04-13T03:01:34.290Z,0.40
2023-04-13T03:04:02.301Z,0.60
2023-04-13T03:06:31.227Z,0.40
2023-04-13T03:08:59.282Z,0.52
2023-04-13T03:11:28.760Z,0.20
2023-04-13T03:13:58.247Z,0.40
2023-04-13T03:16:26.568Z,0.35
2023-04-13T03:18:54.715Z,0.33
2023-04-13T03:21:22.616Z,0.30
2023-04-13T03:23:50.399Z,0.40
2023-04-13T03:26:18.126Z,0.70
2023-04-13T03:28:47.294Z,0.55
2023-04-13T03:31:15.199Z,0.38
2023-04-13T03:33:42.966Z,0.30
2023-04-13T03:36:11.641Z,0.20
2023-04-13T03:38:39.297Z,0.40
2023-04-13T03:41:07.869Z,0.30
2023-04-13T03:43:36.009Z,0.35
2023-04-13T03:46:05.815Z,0.20
2023-04-13T03:48:33.580Z,0.20
2023-04-13T03:51:01.387Z,0.20
2023-04-13T03:53:29.382Z,0.28
2023-04-13T03:55:57.125Z,0.40
2023-04-13T03:58:24.955Z,0.40
2023-04-13T04:00:53.019Z,0.20
2023-04-13T04:03:22.611Z,0.30
2023-04-13T04:05:50.606Z,0.22
2023-04-13T04:08:18.559Z,0.40
2023-04-13T04:10:46.337Z,0.47
2023-04-13T04:13:14.039Z,0.45
2023-04-13T04:15:41.749Z,0.50
2023-04-13T04:18:10.556Z,0.40
2023-04-13T04:20:39.719Z,0.57
2023-04-13T04:23:09.770Z,0.57
2023-04-13T04:25:38.164Z,0.80
2023-04-13T04:28:06.318Z,1.00
2023-04-13T04:30:35.067Z,0.85
2023-04-13T04:33:02.914Z,0.57
2023-04-13T04:35:34.203Z,0.70
2023-04-13T04:38:04.483Z,0.90
2023-04-13T04:40:35.926Z,1.10
2023-04-13T04:43:04.851Z,1.10
2023-04-13T04:45:33.618Z,1.00
2023-04-13T04:48:04.010Z,1.00
2023-04-13T04:50:33.368Z,1.03
2023-04-13T04:53:01.094Z,1.30
2023-04-13T04:55:30.338Z,1.30
2023-04-13T04:57:58.157Z,1.10
2023-04-13T05:00:26.621Z,1.33
2023-04-13T05:02:54.576Z,1.10
2023-04-13T05:05:22.593Z,1.30
2023-04-13T05:07:50.742Z,1.23
2023-04-13T05:10:18.398Z,1.40
2023-04-13T05:12:47.518Z,1.02
2023-04-13T05:15:15.250Z,1.13
2023-04-13T05:17:46.922Z,1.60
2023-04-13T05:20:14.883Z,1.20
2023-04-13T05:22:43.287Z,1.20
2023-04-13T05:25:11.858Z,1.33
2023-04-13T05:27:39.770Z,1.40
2023-04-13T05:30:10.493Z,1.00
2023-04-13T05:32:38.255Z,1.25
2023-04-13T05:35:07.224Z,1.10
2023-04-13T05:37:35.180Z,1.42
2023-04-13T05:40:08.342Z,1.30
2023-04-13T05:42:36.048Z,1.42
2023-04-13T05:45:03.970Z,1.57
2023-04-13T05:47:34.125Z,1.27
2023-04-13T05:50:02.014Z,1.33
2023-04-13T05:52:29.691Z,1.30
2023-04-13T05:54:58.072Z,1.50
2023-04-13T05:57:26.076Z,1.52
2023-04-13T05:59:54.175Z,1.73
2023-04-13T06:02:22.712Z,1.58
2023-04-13T06:04:53.619Z,1.95
2023-04-13T06:07:22.301Z,2.10
2023-04-13T06:09:49.946Z,2.20
2023-04-13T06:12:18.437Z,2.30
2023-04-13T06:14:46.151Z,2.17
2023-04-13T06:17:13.840Z,2.53
2023-04-13T06:19:41.512Z,2.33
2023-04-13T06:22:10.582Z,2.58
2023-04-13T06:24:38.521Z,2.67
2023-04-13T06:27:06.197Z,2.90
2023-04-13T06:29:34.226Z,2.78
2023-04-13T06:32:01.847Z,3.05
2023-04-13T06:34:29.577Z,3.20
2023-04-13T06:36:58.205Z,3.35
2023-04-13T06:39:28.752Z,3.75
2023-04-13T06:41:57.604Z,3.90
2023-04-13T06:44:25.586Z,4.00
2023-04-13T06:46:53.348Z,4.07
2023-04-13T06:49:21.147Z,3.95
2023-04-13T06:51:48.830Z,4.50
2023-04-13T06:54:16.540Z,3.70
2023-04-13T06:56:45.958Z,4.13
2023-04-13T06:59:13.723Z,4.00
2023-04-13T07:01:41.478Z,3.78
2023-04-13T07:04:09.469Z,3.63
2023-04-13T07:06:37.238Z,3.97
2023-04-13T07:09:04.882Z,3.85
2023-04-13T07:11:32.601Z,3.45
2023-04-13T07:14:02.002Z,3.90
2023-04-13T07:16:30.145Z,3.70
2023-04-13T07:19:00.925Z,3.47
2023-04-13T07:21:28.888Z,3.42
2023-04-13T07:23:56.535Z,3.42
2023-04-13T07:26:24.195Z,3.42
2023-04-13T07:28:51.879Z,4.10
2023-04-13T07:31:21.023Z,4.50
2023-04-13T07:33:48.744Z,4.65
2023-04-13T07:36:16.798Z,4.75
2023-04-13T07:38:44.523Z,4.63
2023-04-13T07:41:12.750Z,4.47
2023-04-13T07:43:41.193Z,5.07
2023-04-13T07:46:12.625Z,5.05
2023-04-13T07:48:44.344Z,5.13
2023-04-13T07:51:17.522Z,5.20
2023-04-13T07:53:45.279Z,4.50
2023-04-13T07:56:13.026Z,4.88
2023-04-13T07:58:43.318Z,4.97
2023-04-13T08:01:11.435Z,5.32
2023-04-13T08:03:39.350Z,4.60
2023-04-13T08:06:09.777Z,4.30
2023-04-13T08:08:37.518Z,3.75
2023-04-13T08:11:05.445Z,3.88
2023-04-13T08:13:33.078Z,3.00
2023-04-13T08:16:00.807Z,2.42
2023-04-13T08:18:28.583Z,2.08
2023-04-13T08:20:57.332Z,2.40
2023-04-13T08:23:27.476Z,2.42
2023-04-13T08:25:55.129Z,2.83
2023-04-13T08:28:23.072Z,2.50
2023-04-13T08:30:50.844Z,2.50
2023-04-13T08:33:18.554Z,1.95
2023-04-13T08:35:46.330Z,1.70
2023-04-13T08:38:16.404Z,2.00
2023-04-13T08:40:46.558Z,1.67
2023-04-13T08:43:14.390Z,1.80
2023-04-13T08:45:42.253Z,1.60
2023-04-13T08:48:11.604Z,2.13
2023-04-13T08:50:39.366Z,1.98
2023-04-13T08:53:07.230Z,2.67
2023-04-13T08:55:35.017Z,2.38
2023-04-13T08:58:04.799Z,2.65
2023-04-13T09:00:33.630Z,2.80
2023-04-13T09:03:06.636Z,3.30
2023-04-13T09:05:40.258Z,3.40
2023-04-13T09:08:08.668Z,3.60
2023-04-13T09:10:36.738Z,4.35
2023-04-13T09:13:05.892Z,3.97
2023-04-13T09:15:33.831Z,2.65
2023-04-13T09:18:09.197Z,1.83
2023-04-13T09:20:37.999Z,2.30
2023-04-13T09:23:14.671Z,1.77
2023-04-13T09:25:42.483Z,0.98
2023-04-13T09:28:18.700Z,0.90
2023-04-13T09:30:47.023Z,0.30
2023-04-13T09:33:15.868Z,0.35
2023-04-13T09:35:43.618Z,0.20
2023-04-13T09:38:15.395Z,0.20
2023-04-13T09:40:54.439Z,0.20
2023-04-13T09:43:23.592Z,0.28
2023-04-13T09:45:51.321Z,0.17
2023-04-13T09:48:20.593Z,0.20
2023-04-13T09:50:59.174Z,0.20
2023-04-13T09:53:27.310Z,0.28
2023-04-13T09:55:58.811Z,0.20
2023-04-13T09:58:27.918Z,0.45
2023-04-13T10:00:56.409Z,0.60
2023-04-13T10:03:24.370Z,0.75
2023-04-13T10:05:59.558Z,1.00
2023-04-13T10:11:01.359Z,1.43
2023-04-13T10:13:34.107Z,1.77
2023-04-13T10:16:36.696Z,1.98
2023-04-13T10:19:06.413Z,1.70
2023-04-13T10:21:36.246Z,2.22
2023-04-13T10:24:11.416Z,2.28
2023-04-13T10:26:40.506Z,2.60
2023-04-13T10:29:11.605Z,2.47
2023-04-13T10:31:40.031Z,3.00
2023-04-13T10:34:08.115Z,2.13
2023-04-13T10:36:40.034Z,2.20
2023-04-13T10:39:08.249Z,2.47
2023-04-13T10:41:36.592Z,2.10
2023-04-13T10:44:05.010Z,0.90
2023-04-13T10:46:35.012Z,1.20
2023-04-13T10:49:03.316Z,1.38
2023-04-13T10:51:41.345Z,1.33
2023-04-13T10:54:09.871Z,1.30
2023-04-13T10:56:38.092Z,1.25
2023-04-13T10:59:05.824Z,0.90
2023-04-13T11:01:35.849Z,1.70
2023-04-13T11:04:06.840Z,1.50
2023-04-13T11:06:38.509Z,1.70
2023-04-13T11:09:07.316Z,1.60
2023-04-13T11:11:37.772Z,1.53
2023-04-13T11:14:05.617Z,1.67
2023-04-13T11:16:44.894Z,1.75
2023-04-13T11:19:12.655Z,1.60
2023-04-13T11:21:40.426Z,1.47
2023-04-13T11:24:10.058Z,1.30
2023-04-13T11:26:38.728Z,1.38
2023-04-13T11:29:06.891Z,1.48
2023-04-13T11:31:40.185Z,1.33
2023-04-13T11:34:09.680Z,1.10
2023-04-13T11:36:38.973Z,1.10
2023-04-13T11:39:10.294Z,1.08
2023-04-13T11:41:41.285Z,1.33
2023-04-13T11:44:08.978Z,1.20
2023-04-13T11:46:39.011Z,1.08
2023-04-13T11:49:48.020Z,1.00
2023-04-13T11:52:15.875Z,1.17
2023-04-13T11:54:44.686Z,1.58
2023-04-13T11:57:13.655Z,1.33
2023-04-13T11:59:41.355Z,1.52
2023-04-13T12:02:20.792Z,1.63
2023-04-13T12:04:51.336Z,1.48
2023-04-13T12:07:19.727Z,1.20
2023-04-13T12:15:10.767Z,1.10
2023-04-13T12:17:49.489Z,1.00
2023-04-13T12:20:20.709Z,1.27
2023-04-13T12:22:57.661Z,1.00
2023-04-13T12:25:35.107Z,1.30
2023-04-13T12:28:04.433Z,1.30
2023-04-13T12:30:33.942Z,1.20
2023-04-13T12:33:03.440Z,1.02
2023-04-13T12:35:31.245Z,1.40
2023-04-13T12:38:00.243Z,1.23
2023-04-13T12:40:27.992Z,1.20
2023-04-13T12:42:55.747Z,1.40
2023-04-13T12:45:23.424Z,1.52
2023-04-13T12:47:51.323Z,1.15
2023-04-13T12:50:20.535Z,1.58
2023-04-13T12:52:49.790Z,1.17
2023-04-13T12:55:18.248Z,1.02
2023-04-13T12:57:46.002Z,0.68
2023-04-13T13:00:15.918Z,0.98
2023-04-13T13:02:43.862Z,1.20
2023-04-13T13:05:11.983Z,1.02
2023-04-13T13:07:44.181Z,1.00
2023-04-13T13:10:29.103Z,0.60
2023-04-13T13:12:57.937Z,1.10
2023-04-13T13:15:25.861Z,0.93
2023-04-13T13:17:53.646Z,0.88
2023-04-13T13:20:21.436Z,0.95
2023-04-13T13:22:50.520Z,0.98
2023-04-13T13:25:18.287Z,0.90
2023-04-13T13:30:16.674Z,0.80
2023-04-13T13:32:44.334Z,0.70
2023-04-13T13:35:12.072Z,0.68
2023-04-13T13:37:39.867Z,0.80
2023-04-13T13:40:13.317Z,0.95
2023-04-13T13:42:51.401Z,1.00
2023-04-13T13:45:20.833Z,1.00
2023-04-13T13:47:51.285Z,1.23
2023-04-13T13:50:20.254Z,0.75
2023-04-13T13:52:59.737Z,0.80
2023-04-13T13:55:32.011Z,0.50
2023-04-13T13:57:59.816Z,0.85
2023-04-13T14:00:27.505Z,1.10
2023-04-13T14:02:55.206Z,1.35
2023-04-13T14:05:23.320Z,0.90
2023-04-13T14:07:51.112Z,0.80
2023-04-13T14:10:18.884Z,0.80
2023-04-13T14:12:50.487Z,0.70
2023-04-13T14:15:18.809Z,0.73
2023-04-13T14:17:52.838Z,0.68
2023-04-13T14:20:30.032Z,0.90
2023-04-13T14:22:58.494Z,0.77
2023-04-13T14:25:26.245Z,0.52
2023-04-13T14:27:55.308Z,0.43
2023-04-13T14:30:25.577Z,0.57
2023-04-13T14:32:54.985Z,1.20
2023-04-13T14:35:22.871Z,0.52
2023-04-13T14:37:50.680Z,4.50
2023-04-13T14:40:21.842Z,2.37
2023-04-13T14:42:51.025Z,1.20
2023-04-13T14:45:20.323Z,1.37
2023-04-13T14:47:48.274Z,1.60
2023-04-13T14:50:16.340Z,1.00
2023-04-13T14:52:44.412Z,0.77
2023-04-13T14:55:12.706Z,0.85
2023-04-13T14:57:40.634Z,0.80
2023-04-13T15:00:14.918Z,0.82
2023-04-13T15:02:45.906Z,0.60
2023-04-13T15:13:06.447Z,0.55
2023-04-13T15:15:36.421Z,0.60
2023-04-13T15:18:05.010Z,1.05
2023-04-13T15:20:32.846Z,0.68
2023-04-13T15:23:00.622Z,0.52
2023-04-13T15:25:28.458Z,0.57
2023-04-13T15:27:57.977Z,0.80
2023-04-13T15:30:28.357Z,1.10
2023-04-13T15:32:56.873Z,0.90
2023-04-13T15:35:25.834Z,0.90
2023-04-13T15:37:54.743Z,0.40
2023-04-13T15:40:25.009Z,0.30
2023-04-13T15:42:52.803Z,0.47
2023-04-13T15:45:20.944Z,0.52
2023-04-13T15:47:50.055Z,0.40
2023-04-13T15:50:18.955Z,0.30
2023-04-13T15:52:47.006Z,0.27
2023-04-13T15:55:14.771Z,0.50
2023-04-13T15:57:42.520Z,0.40
2023-04-13T16:00:12.506Z,0.47
2023-04-13T16:02:40.680Z,0.80
2023-04-13T16:05:10.280Z,0.63
2023-04-13T16:07:37.987Z,0.40
2023-04-13T16:10:07.059Z,0.52
2023-04-13T16:12:34.846Z,0.43
2023-04-13T16:15:03.246Z,0.40
2023-04-13T16:17:34.551Z,0.68
2023-04-13T16:20:18.280Z,0.30
2023-04-13T16:22:49.198Z,0.40
2023-04-13T16:25:17.708Z,0.57
2023-04-13T16:27:47.917Z,0.60
2023-04-13T16:30:17.847Z,0.77
2023-04-13T16:32:46.430Z,0.50
2023-04-13T16:35:14.383Z,0.60
2023-04-13T16:37:43.218Z,0.33
2023-04-13T16:40:13.260Z,0.50
2023-04-13T16:42:41.437Z,0.57
2023-04-13T16:45:13.735Z,0.75
2023-04-13T16:47:42.418Z,0.88
2023-04-13T16:50:11.031Z,0.50
2023-04-13T16:52:39.896Z,0.43
2023-04-13T16:55:08.167Z,0.50
2023-04-13T16:57:37.263Z,0.60
2023-04-13T17:00:09.371Z,0.82
2023-04-13T17:02:37.966Z,0.70
2023-04-13T17:05:08.263Z,1.10
2023-04-13T17:07:36.840Z,0.60
2023-04-13T17:10:05.535Z,0.45
2023-04-13T17:12:33.279Z,0.82
2023-04-13T17:15:02.439Z,3.47
2023-04-13T17:17:30.160Z,0.88
2023-04-13T17:19:58.094Z,0.47
2023-04-13T17:22:25.739Z,1.40
2023-04-13T17:24:53.560Z,1.13
2023-04-13T17:27:21.278Z,2.10
2023-04-13T17:29:49.907Z,0.80
2023-04-13T17:32:21.403Z,0.43
2023-04-13T17:34:49.529Z,1.52
2023-04-13T17:37:18.033Z,0.90
2023-04-13T17:39:47.618Z,0.93
2023-04-13T17:42:15.691Z,1.20
2023-04-13T17:44:43.922Z,1.70
2023-04-13T17:47:11.688Z,1.33
2023-04-13T17:49:41.368Z,1.60
2023-04-13T17:52:09.066Z,1.10
2023-04-13T17:54:37.527Z,0.80
2023-04-13T17:57:06.946Z,0.73
2023-04-13T17:59:34.898Z,0.63
2023-04-13T18:02:02.834Z,1.10
2023-04-13T18:04:32.322Z,0.95
2023-04-13T18:07:01.753Z,0.98
2023-04-13T18:09:29.480Z,0.80
2023-04-13T18:11:57.158Z,0.60
2023-04-13T18:14:24.817Z,0.50
2023-04-13T18:16:52.545Z,0.77
2023-04-13T18:19:20.433Z,0.80
2023-04-13T18:21:48.157Z,0.50
2023-04-13T18:24:17.453Z,0.30
2023-04-13T18:26:45.079Z,0.93
2023-04-13T18:29:13.659Z,0.85
2023-04-13T18:31:42.192Z,1.07
2023-04-13T18:34:12.696Z,0.85
2023-04-13T18:36:40.434Z,0.70
2023-04-13T18:39:08.152Z,0.85
2023-04-13T18:41:38.959Z,0.98
2023-04-13T18:44:07.959Z,1.67
2023-04-13T18:46:35.766Z,1.88
2023-04-13T18:49:03.456Z,1.70
2023-04-13T18:51:32.847Z,1.70
2023-04-13T18:54:00.919Z,2.00
2023-04-13T18:56:28.774Z,2.53
2023-04-13T18:58:57.797Z,2.47
2023-04-13T19:01:25.613Z,3.55
2023-04-13T19:03:53.717Z,3.23
2023-04-13T19:06:21.589Z,3.20
2023-04-13T19:08:49.303Z,3.22
2023-04-13T19:11:18.453Z,3.13
2023-04-13T19:13:47.822Z,3.03
2023-04-13T19:16:17.817Z,3.17
2023-04-13T19:18:45.565Z,4.20
2023-04-13T19:21:13.318Z,4.15
2023-04-13T19:23:41.289Z,4.00
2023-04-13T19:26:08.907Z,4.07
2023-04-13T19:28:36.546Z,4.30
2023-04-13T19:31:04.277Z,3.80
2023-04-13T19:33:34.807Z,4.40
2023-04-13T19:36:05.828Z,4.70
2023-04-13T19:38:33.552Z,6.43
2023-04-13T19:41:01.160Z,5.75
2023-04-13T19:43:28.902Z,6.53
2023-04-13T19:45:56.646Z,5.50
2023-04-13T19:48:24.355Z,6.10
2023-04-13T19:50:53.469Z,5.40
2023-04-13T19:53:21.133Z,5.60
2023-04-13T19:55:48.787Z,8.63
2023-04-13T19:58:16.877Z,9.13
2023-04-13T20:00:47.416Z,8.43
2023-04-13T20:03:15.327Z,43.92
2023-04-13T20:05:43.186Z,86.57
2023-04-13T20:08:12.309Z,27.27
2023-04-13T20:10:40.014Z,12.77
2023-04-13T20:13:07.660Z,8.63
2023-04-13T20:15:35.459Z,8.32
2023-04-13T20:18:07.207Z,10.32
2023-04-13T20:20:36.612Z,12.50
2023-04-13T20:23:05.286Z,15.82
2023-04-13T20:25:34.369Z,17.88
2023-04-13T20:28:02.058Z,20.30
2023-04-13T20:30:29.993Z,17.38
2023-04-13T20:32:57.779Z,15.07
2023-04-13T20:35:25.527Z,14.48
2023-04-13T20:37:53.229Z,13.57
2023-04-13T20:40:27.124Z,14.07
2023-04-13T20:42:58.488Z,14.07
2023-04-13T20:45:27.254Z,14.82
2023-04-13T20:47:56.249Z,15.18
2023-04-13T20:50:27.023Z,14.98
2023-04-13T20:52:56.738Z,15.60
2023-04-13T20:55:24.796Z,14.35
2023-04-13T20:57:52.477Z,14.05
2023-04-13T21:00:23.462Z,13.55
2023-04-13T21:02:52.887Z,13.63
2023-04-13T21:05:24.595Z,14.00
2023-04-13T21:07:52.297Z,15.07
2023-04-13T21:10:19.962Z,17.08
2023-04-13T21:12:47.585Z,17.77
2023-04-13T21:15:15.225Z,16.30
2023-04-13T21:17:44.357Z,15.70
2023-04-13T21:20:13.411Z,16.33
2023-04-13T21:22:41.210Z,17.57
2023-04-13T21:25:09.575Z,17.00
2023-04-13T21:27:37.206Z,8.80
2023-04-13T21:30:06.192Z,5.65
2023-04-13T21:32:33.856Z,3.80
2023-04-13T21:35:03.097Z,1.93
2023-04-13T21:37:30.916Z,1.77
2023-04-13T21:39:58.822Z,1.58
2023-04-13T21:42:26.755Z,1.70
2023-04-13T21:44:56.264Z,1.23
2023-04-13T21:47:24.096Z,1.20
2023-04-13T21:49:52.204Z,0.90
2023-04-13T21:52:21.328Z,1.13
2023-04-13T21:54:51.372Z,0.90
2023-04-13T21:57:19.370Z,0.87
2023-04-13T21:59:47.188Z,0.57
2023-04-13T22:02:14.982Z,1.00
2023-04-13T22:04:42.813Z,0.63
2023-04-13T22:07:10.532Z,0.60
2023-04-13T22:09:39.710Z,0.80
2023-04-13T22:12:07.550Z,0.60
2023-04-13T22:14:35.219Z,0.67
2023-04-13T22:17:02.874Z,0.70
2023-04-13T22:19:30.628Z,0.60
2023-04-13T22:21:58.710Z,0.40
2023-04-13T22:24:26.406Z,0.70
2023-04-13T22:26:55.465Z,0.60
2023-04-13T22:29:23.241Z,0.63
2023-04-13T22:31:51.021Z,0.60
2023-04-13T22:34:18.771Z,0.70
2023-04-13T22:36:46.558Z,0.68
2023-04-13T22:39:14.428Z,0.80
2023-04-13T22:41:42.210Z,0.80
2023-04-13T22:44:11.281Z,0.77
2023-04-13T22:46:39.045Z,0.90
2023-04-13T22:49:06.776Z,0.60
2023-04-13T22:51:39.052Z,0.80
2023-04-13T22:54:07.023Z,0.82
2023-04-13T22:56:34.728Z,0.80
2023-04-13T22:59:03.116Z,1.08
2023-04-13T23:01:32.375Z,1.10
2023-04-13T23:04:00.451Z,0.75
2023-04-13T23:06:28.499Z,0.73
2023-04-13T23:08:56.209Z,0.77
2023-04-13T23:11:24.105Z,0.80
2023-04-13T23:13:53.985Z,0.70
2023-04-13T23:16:21.710Z,1.10
2023-04-13T23:18:50.913Z,1.98
2023-04-13T23:21:18.583Z,2.78
2023-04-13T23:23:46.322Z,1.90
2023-04-13T23:26:14.195Z,2.10
2023-04-13T23:28:41.964Z,1.70
2023-04-13T23:31:09.941Z,1.90
2023-04-13T23:33:37.748Z,2.30
2023-04-13T23:36:07.397Z,3.55
2023-04-13T23:38:35.387Z,5.38
2023-04-13T23:41:03.045Z,5.77
2023-04-13T23:43:31.007Z,5.00
2023-04-13T23:45:58.907Z,4.70
2023-04-13T23:48:27.351Z,5.50
2023-04-13T23:50:55.388Z,5.95
2023-04-13T23:53:24.645Z,4.15
2023-04-13T23:55:52.418Z,3.25
2023-04-13T23:58:20.108Z,2.10
